Time;durP1;ratioP1;P1;durP2;ratioP2;P2;SDS_P1;SDS_P2;PMS_P1;PMS_P2;Temp;Humidity;BMP_temperature;BMP_pressure;BME280_temperature;BME280_humidity;BME280_pressure;Samples;Min_cycle;Max_cycle;Signal;HPM_P1;HPM_P2
2022/02/11 00:02:14;;;;;;;11.50;5.78;;;;;;;;;;5118134;28;20051;-75
2022/02/11 00:05:11;;;;;;;11.57;6.30;;;;;;;;;;5117635;28;20035;-74
2022/02/11 00:07:39;;;;;;;8.57;4.60;;;;;;;;;;5127873;27;20031;-74
2022/02/11 00:10:07;;;;;;;8.20;4.50;;;;;;;;;;5132317;27;20051;-74
2022/02/11 00:12:34;;;;;;;12.60;5.05;;;;;;;;;;5131739;27;20118;-74
2022/02/11 00:15:27;;;;;;;10.23;4.90;;;;;;;;;;5119843;27;20090;-75
2022/02/11 00:17:53;;;;;;;18.55;8.30;;;;;;;;;;5126903;27;20051;-74
2022/02/11 00:20:20;;;;;;;13.68;5.97;;;;;;;;;;5130680;27;20518;-74
2022/02/11 00:22:47;;;;;;;11.80;5.78;;;;;;;;;;5125647;27;20075;-74
2022/02/11 00:25:21;;;;;;;11.80;5.10;;;;;;;;;;5130527;27;20074;-74
2022/02/11 00:33:23;;;;;;;7.95;4.82;;;;;;;;;;5114514;28;20036;-74
2022/02/11 00:35:54;;;;;;;9.27;5.20;;;;;;;;;;5115686;28;20043;-74
2022/02/11 00:38:30;;;;;;;8.63;4.57;;;;;;;;;;5121466;27;20379;-74
2022/02/11 00:41:50;;;;;;;10.27;4.63;;;;;;;;;;5138696;27;20126;-74
2022/02/11 01:03:59;;;;;;;7.97;4.30;;;;;;;;;;5119050;27;20047;-75
2022/02/11 01:06:27;;;;;;;8.80;4.68;;;;;;;;;;5115362;27;20047;-75
2022/02/11 01:08:54;;;;;;;13.13;4.32;;;;;;;;;;5126073;27;20071;-75
2022/02/11 01:11:27;;;;;;;11.85;4.85;;;;;;;;;;5117144;27;20051;-75
2022/02/11 01:13:53;;;;;;;14.45;4.88;;;;;;;;;;5117617;28;20059;-75
2022/02/11 01:16:26;;;;;;;8.45;4.78;;;;;;;;;;5114637;27;20067;-75
2022/02/11 01:19:00;;;;;;;11.30;5.30;;;;;;;;;;5115015;28;20054;-75
2022/02/11 01:21:35;;;;;;;10.05;4.45;;;;;;;;;;5116823;27;20047;-74
2022/02/11 01:24:12;;;;;;;12.73;6.43;;;;;;;;;;5138028;27;20071;-75
2022/02/11 01:26:49;;;;;;;11.43;5.07;;;;;;;;;;5136110;27;20046;-75
2022/02/11 01:32:17;;;;;;;11.35;5.40;;;;;;;;;;5113724;27;20066;-81
2022/02/11 01:34:54;;;;;;;9.98;5.07;;;;;;;;;;5117098;27;20128;-75
2022/02/11 01:37:30;;;;;;;11.57;5.80;;;;;;;;;;5116379;28;20043;-75
2022/02/11 01:51:26;;;;;;;10.35;5.10;;;;;;;;;;5116213;28;20058;-74
2022/02/11 01:54:02;;;;;;;11.55;5.13;;;;;;;;;;5127496;27;20122;-75
2022/02/11 01:56:41;;;;;;;10.90;5.30;;;;;;;;;;5137348;27;20042;-74
2022/02/11 01:59:45;;;;;;;9.27;5.57;;;;;;;;;;5134883;27;20420;-75
2022/02/11 02:02:42;;;;;;;8.77;4.40;;;;;;;;;;5134038;27;20039;-75
2022/02/11 02:11:19;;;;;;;10.05;5.13;;;;;;;;;;5133109;27;20103;-75
2022/02/11 02:19:47;;;;;;;9.20;4.53;;;;;;;;;;5121488;27;20105;-75
2022/02/11 02:25:01;;;;;;;9.23;4.93;;;;;;;;;;5118445;27;20043;-76
2022/02/11 02:27:48;;;;;;;8.88;5.53;;;;;;;;;;5133449;27;20039;-75
2022/02/11 02:31:35;;;;;;;13.60;5.20;;;;;;;;;;5134244;27;20047;-75
2022/02/11 02:36:39;;;;;;;10.73;4.45;;;;;;;;;;5111972;28;20044;-75
2022/02/11 02:50:20;;;;;;;13.10;4.85;;;;;;;;;;5115193;27;20050;-75
2022/02/11 02:58:36;;;;;;;9.48;4.38;;;;;;;;;;5112497;28;20376;-75
2022/02/11 03:01:33;;;;;;;12.15;5.00;;;;;;;;;;5118407;27;20103;-75
2022/02/11 03:15:19;;;;;;;12.20;3.92;;;;;;;;;;5120286;27;20042;-75
2022/02/11 03:31:33;;;;;;;16.70;5.35;;;;;;;;;;5111555;27;20069;-76
2022/02/11 03:34:53;;;;;;;9.20;4.68;;;;;;;;;;5111763;28;20055;-75
2022/02/11 03:51:35;;;;;;;9.88;4.50;;;;;;;;;;5110965;28;20056;-75
2022/02/11 04:59:46;;;;;;;10.40;6.43;;;;;;;;;;5096368;28;20102;-74
2022/02/11 05:02:13;;;;;;;14.63;6.28;;;;;;;;;;5092808;28;20050;-75
2022/02/11 05:04:39;;;;;;;10.65;6.13;;;;;;;;;;5098439;28;20077;-76
2022/02/11 05:07:06;;;;;;;11.02;6.10;;;;;;;;;;5116731;28;20082;-75
2022/02/11 05:09:34;;;;;;;11.73;6.70;;;;;;;;;;5117690;28;20085;-75
2022/02/11 05:12:00;;;;;;;10.98;6.20;;;;;;;;;;5105851;28;20079;-76
2022/02/11 05:14:27;;;;;;;13.10;6.80;;;;;;;;;;5089480;28;20070;-76
2022/02/11 05:16:53;;;;;;;9.95;5.93;;;;;;;;;;5086260;28;20388;-76
2022/02/11 05:19:20;;;;;;;10.32;6.70;;;;;;;;;;5094343;28;20506;-78
2022/02/11 05:21:46;;;;;;;11.90;6.80;;;;;;;;;;5080828;28;20112;-76
2022/02/11 05:24:13;;;;;;;10.65;6.53;;;;;;;;;;5076785;28;20040;-75
2022/02/11 05:26:41;;;;;;;12.18;6.78;;;;;;;;;;5074680;28;20040;-76
2022/02/11 05:29:07;;;;;;;9.43;6.32;;;;;;;;;;5083814;28;20067;-76
2022/02/11 05:31:34;;;;;;;14.38;7.72;;;;;;;;;;5095935;28;20134;-75
2022/02/11 05:34:00;;;;;;;10.73;7.07;;;;;;;;;;5103065;28;20067;-76
2022/02/11 05:36:27;;;;;;;12.20;7.35;;;;;;;;;;5116118;28;20507;-76
2022/02/11 05:38:53;;;;;;;16.58;7.70;;;;;;;;;;5121389;27;20090;-76
2022/02/11 05:41:20;;;;;;;15.32;8.05;;;;;;;;;;5133033;27;20078;-76
2022/02/11 05:43:48;;;;;;;14.77;7.97;;;;;;;;;;5115377;28;20090;-75
2022/02/11 05:46:15;;;;;;;11.82;7.57;;;;;;;;;;5094589;28;20040;-75
2022/02/11 05:48:43;;;;;;;11.50;7.30;;;;;;;;;;5115658;28;20383;-75
2022/02/11 05:51:09;;;;;;;12.43;7.32;;;;;;;;;;5095657;28;20044;-75
2022/02/11 05:53:36;;;;;;;11.13;6.75;;;;;;;;;;5114136;28;20047;-75
2022/02/11 05:56:03;;;;;;;10.35;6.03;;;;;;;;;;5094207;28;20078;-75
2022/02/11 05:58:29;;;;;;;9.73;5.88;;;;;;;;;;5096281;28;20040;-74
2022/02/11 06:00:57;;;;;;;19.02;8.88;;;;;;;;;;5094151;28;20440;-75
2022/02/11 06:03:24;;;;;;;10.63;5.93;;;;;;;;;;5109805;28;20085;-76
2022/02/11 06:05:50;;;;;;;9.48;5.93;;;;;;;;;;5097957;28;20110;-74
2022/02/11 06:08:17;;;;;;;8.57;4.55;;;;;;;;;;5095313;28;20075;-75
2022/02/11 06:10:43;;;;;;;8.13;4.65;;;;;;;;;;5094092;28;20072;-75
2022/02/11 06:13:16;;;;;;;6.95;3.83;;;;;;;;;;5095751;28;20067;-75
2022/02/11 06:15:43;;;;;;;6.55;3.72;;;;;;;;;;5097889;28;20044;-75
2022/02/11 06:18:11;;;;;;;5.97;2.83;;;;;;;;;;5101341;28;20067;-75
2022/02/11 06:20:38;;;;;;;6.45;4.22;;;;;;;;;;5100840;28;20074;-75
2022/02/11 06:23:05;;;;;;;6.72;3.83;;;;;;;;;;5093309;28;20083;-75
2022/02/11 06:25:32;;;;;;;7.32;4.53;;;;;;;;;;5095769;28;20047;-74
2022/02/11 06:27:58;;;;;;;5.90;3.50;;;;;;;;;;5095771;28;20098;-74
2022/02/11 06:30:25;;;;;;;6.00;3.42;;;;;;;;;;5095640;28;20438;-74
2022/02/11 06:32:52;;;;;;;5.85;2.83;;;;;;;;;;5095762;28;20043;-75
2022/02/11 06:35:20;;;;;;;9.13;3.17;;;;;;;;;;5095376;28;20068;-74
2022/02/11 06:37:48;;;;;;;5.82;4.03;;;;;;;;;;5095527;28;20403;-75
2022/02/11 06:40:15;;;;;;;6.07;3.60;;;;;;;;;;5094623;28;20213;-74
2022/02/11 06:42:42;;;;;;;6.82;2.90;;;;;;;;;;5095123;28;20068;-74
2022/02/11 06:45:10;;;;;;;4.10;2.45;;;;;;;;;;5095401;28;20040;-75
2022/02/11 06:47:36;;;;;;;3.47;2.28;;;;;;;;;;5092631;28;20475;-75
2022/02/11 06:50:03;;;;;;;4.75;2.75;;;;;;;;;;5095350;28;20158;-74
2022/02/11 06:52:31;;;;;;;5.03;2.45;;;;;;;;;;5101401;28;20489;-75
2022/02/11 06:54:58;;;;;;;5.60;3.38;;;;;;;;;;5115533;28;20044;-74
2022/02/11 06:57:24;;;;;;;6.60;4.35;;;;;;;;;;5115202;28;20071;-74
2022/02/11 06:59:51;;;;;;;7.60;3.67;;;;;;;;;;5114366;28;20074;-75
2022/02/11 07:02:19;;;;;;;5.00;2.33;;;;;;;;;;5115304;28;20071;-74
2022/02/11 07:04:46;;;;;;;3.80;2.53;;;;;;;;;;5115497;28;20456;-74
2022/02/11 07:07:14;;;;;;;3.33;2.22;;;;;;;;;;5114952;28;20074;-75
2022/02/11 07:09:42;;;;;;;3.35;1.98;;;;;;;;;;5102150;28;20082;-75
2022/02/11 07:12:10;;;;;;;2.80;2.00;;;;;;;;;;5095001;28;20123;-75
2022/02/11 07:14:36;;;;;;;2.80;2.08;;;;;;;;;;5094897;28;20086;-74
2022/02/11 07:17:04;;;;;;;2.80;1.63;;;;;;;;;;5094162;28;20072;-75
2022/02/11 07:19:31;;;;;;;2.22;1.33;;;;;;;;;;5093786;28;20476;-74
2022/02/11 07:22:01;;;;;;;4.32;2.03;;;;;;;;;;5093744;28;20537;-75
2022/02/11 07:24:28;;;;;;;2.83;1.90;;;;;;;;;;5093798;28;20491;-74
2022/02/11 07:26:57;;;;;;;2.63;1.60;;;;;;;;;;5094865;28;20044;-75
2022/02/11 07:29:24;;;;;;;2.33;1.50;;;;;;;;;;5094609;28;20079;-74
2022/02/11 07:31:50;;;;;;;2.58;1.60;;;;;;;;;;5093879;28;20071;-75
2022/02/11 07:34:17;;;;;;;2.83;1.67;;;;;;;;;;5094273;28;20071;-75
2022/02/11 07:36:44;;;;;;;2.78;1.65;;;;;;;;;;5093574;28;20078;-75
2022/02/11 07:39:11;;;;;;;3.33;2.25;;;;;;;;;;5089348;28;20095;-75
2022/02/11 07:41:38;;;;;;;3.33;2.25;;;;;;;;;;5074351;28;20048;-74
2022/02/11 07:44:06;;;;;;;2.63;1.63;;;;;;;;;;5074573;28;20083;-75
2022/02/11 07:46:33;;;;;;;3.63;2.15;;;;;;;;;;5076430;28;20075;-75
2022/02/11 07:49:00;;;;;;;4.68;2.38;;;;;;;;;;5094698;28;20084;-75
2022/02/11 07:51:27;;;;;;;3.90;2.28;;;;;;;;;;5094294;28;20361;-75
2022/02/11 07:53:55;;;;;;;4.22;2.67;;;;;;;;;;5093473;28;20075;-75
2022/02/11 07:56:22;;;;;;;3.85;2.42;;;;;;;;;;5094308;28;20449;-75
2022/02/11 07:58:48;;;;;;;4.00;2.55;;;;;;;;;;5082449;28;20159;-75
2022/02/11 08:01:19;;;;;;;3.97;2.53;;;;;;;;;;5073324;28;20044;-75
2022/02/11 08:03:46;;;;;;;5.95;2.30;;;;;;;;;;5071155;28;20514;-75
2022/02/11 08:06:13;;;;;;;3.72;2.38;;;;;;;;;;5073454;28;20064;-75
2022/02/11 08:08:39;;;;;;;4.30;2.80;;;;;;;;;;5074415;28;20135;-75
2022/02/11 08:11:06;;;;;;;3.80;2.60;;;;;;;;;;5073881;28;20075;-75
2022/02/11 08:13:33;;;;;;;3.97;2.58;;;;;;;;;;5074114;28;20376;-75
2022/02/11 08:16:00;;;;;;;4.85;3.25;;;;;;;;;;5073818;28;20048;-75
2022/02/11 08:18:28;;;;;;;4.32;2.83;;;;;;;;;;5073296;28;20071;-76
2022/02/11 08:20:54;;;;;;;5.43;3.00;;;;;;;;;;5076188;28;20080;-75
2022/02/11 08:23:22;;;;;;;4.63;2.90;;;;;;;;;;5075496;28;20064;-75
2022/02/11 08:25:48;;;;;;;4.63;2.90;;;;;;;;;;5077820;28;20048;-75
2022/02/11 08:28:15;;;;;;;7.28;3.10;;;;;;;;;;5086147;28;20044;-75
2022/02/11 08:30:42;;;;;;;6.57;3.60;;;;;;;;;;5096855;28;20487;-75
2022/02/11 08:33:09;;;;;;;7.43;4.38;;;;;;;;;;5097964;28;20044;-75
2022/02/11 08:35:37;;;;;;;6.85;3.67;;;;;;;;;;5097152;28;20111;-74
2022/02/11 08:38:03;;;;;;;7.20;4.30;;;;;;;;;;5097598;28;20040;-75
2022/02/11 08:40:35;;;;;;;6.15;4.47;;;;;;;;;;5112778;28;20451;-75
2022/02/11 08:43:02;;;;;;;9.55;4.72;;;;;;;;;;5117881;28;20040;-75
2022/02/11 08:45:29;;;;;;;6.00;3.83;;;;;;;;;;5103940;28;20051;-76
2022/02/11 08:47:55;;;;;;;7.95;4.30;;;;;;;;;;5111312;28;20067;-75
2022/02/11 08:50:24;;;;;;;8.98;4.28;;;;;;;;;;5118177;28;20415;-75
2022/02/11 08:52:52;;;;;;;5.95;3.60;;;;;;;;;;5118040;28;20126;-75
2022/02/11 08:55:22;;;;;;;8.15;4.05;;;;;;;;;;5117032;28;20078;-75
2022/02/11 08:57:48;;;;;;;9.90;4.95;;;;;;;;;;5117959;28;20036;-75
2022/02/11 09:00:16;;;;;;;7.82;4.70;;;;;;;;;;5116765;28;20043;-75
2022/02/11 09:02:42;;;;;;;6.97;4.38;;;;;;;;;;5117775;28;20047;-76
2022/02/11 09:05:09;;;;;;;8.35;4.63;;;;;;;;;;5117925;28;20127;-75
2022/02/11 09:07:36;;;;;;;6.07;4.35;;;;;;;;;;5117697;28;20118;-75
2022/02/11 09:10:07;;;;;;;8.70;3.90;;;;;;;;;;5117390;28;20165;-75
2022/02/11 09:12:34;;;;;;;7.15;3.58;;;;;;;;;;5117300;28;20130;-75
2022/02/11 09:15:00;;;;;;;6.80;4.03;;;;;;;;;;5109707;28;20074;-76
2022/02/11 09:17:27;;;;;;;7.03;3.95;;;;;;;;;;5096028;28;20067;-75
2022/02/11 09:19:53;;;;;;;6.78;3.75;;;;;;;;;;5096004;28;20481;-75
2022/02/11 09:22:20;;;;;;;6.80;3.58;;;;;;;;;;5096235;28;20075;-75
2022/02/11 09:24:46;;;;;;;5.32;3.30;;;;;;;;;;5096994;28;20067;-75
2022/02/11 09:27:16;;;;;;;8.60;3.53;;;;;;;;;;5095781;28;20094;-75
2022/02/11 09:29:43;;;;;;;6.57;3.92;;;;;;;;;;5096929;28;20043;-75
2022/02/11 09:32:10;;;;;;;6.10;3.95;;;;;;;;;;5095904;28;20423;-75
2022/02/11 09:34:37;;;;;;;8.65;4.30;;;;;;;;;;5095964;28;20098;-75
2022/02/11 09:37:04;;;;;;;6.15;3.67;;;;;;;;;;5096447;28;20114;-75
2022/02/11 09:39:30;;;;;;;6.32;4.03;;;;;;;;;;5096252;28;20052;-74
2022/02/11 09:41:57;;;;;;;7.70;3.63;;;;;;;;;;5096578;28;20118;-74
2022/02/11 09:44:27;;;;;;;5.32;3.33;;;;;;;;;;5096621;28;20075;-73
2022/02/11 09:46:55;;;;;;;7.97;3.40;;;;;;;;;;5101768;28;20435;-74
2022/02/11 09:49:22;;;;;;;5.32;3.03;;;;;;;;;;5112621;28;20063;-74
2022/02/11 09:51:50;;;;;;;5.53;2.65;;;;;;;;;;5115854;28;20039;-74
2022/02/11 09:54:18;;;;;;;4.78;2.30;;;;;;;;;;5116959;28;20040;-74
2022/02/11 09:56:44;;;;;;;4.00;2.30;;;;;;;;;;5116924;28;20136;-74
2022/02/11 09:59:11;;;;;;;4.95;2.25;;;;;;;;;;5116964;28;20035;-74
2022/02/11 10:01:42;;;;;;;4.75;2.58;;;;;;;;;;5116639;28;20086;-74
2022/02/11 10:04:11;;;;;;;3.20;1.70;;;;;;;;;;5116185;28;20058;-74
2022/02/11 10:06:38;;;;;;;6.38;1.67;;;;;;;;;;5118591;28;20035;-74
2022/02/11 10:09:05;;;;;;;5.00;2.38;;;;;;;;;;5116486;28;20471;-74
2022/02/11 10:11:32;;;;;;;4.32;1.65;;;;;;;;;;5116522;28;20082;-78
2022/02/11 10:14:17;;;;;;;3.05;1.60;;;;;;;;;;5116831;28;20071;-75
2022/02/11 10:16:57;;;;;;;4.68;2.05;;;;;;;;;;5115766;28;20448;-74
2022/02/11 10:19:44;;;;;;;4.10;2.20;;;;;;;;;;5113800;28;20082;-75
2022/02/11 10:22:11;;;;;;;;;;;;;;;;;;5116028;28;20075;-74
2022/02/11 10:24:38;;;;;;;3.17;1.77;;;;;;;;;;5115385;28;20359;-74
2022/02/11 10:27:25;;;;;;;5.88;1.73;;;;;;;;;;5115500;28;20075;-74
2022/02/11 10:29:56;;;;;;;3.15;2.10;;;;;;;;;;5124720;27;20035;-74
2022/02/11 10:32:43;;;;;;;2.92;1.60;;;;;;;;;;5117609;27;20043;-75
2022/02/11 10:35:12;;;;;;;3.28;1.63;;;;;;;;;;5101108;28;20468;-74
2022/02/11 10:38:07;;;;;;;5.90;1.95;;;;;;;;;;5095413;28;20437;-74
2022/02/11 10:40:35;;;;;;;3.05;1.48;;;;;;;;;;5108454;28;20051;-74
2022/02/11 10:43:02;;;;;;;6.03;1.80;;;;;;;;;;5114198;28;20088;-74
2022/02/11 10:45:31;;;;;;;4.95;1.90;;;;;;;;;;5115547;28;20077;-74
2022/02/11 10:48:17;;;;;;;4.25;1.75;;;;;;;;;;5113073;28;20043;-74
2022/02/11 10:50:48;;;;;;;2.50;1.43;;;;;;;;;;5094461;28;20487;-75
2022/02/11 10:53:25;;;;;;;4.90;1.60;;;;;;;;;;5095140;28;20408;-75
2022/02/11 10:55:53;;;;;;;5.82;2.15;;;;;;;;;;5094285;28;20044;-75
2022/02/11 10:58:20;;;;;;;8.80;1.88;;;;;;;;;;5095350;28;20079;-75
2022/02/11 11:00:47;;;;;;;4.72;2.05;;;;;;;;;;5094380;28;20071;-75
2022/02/11 11:03:15;;;;;;;2.17;1.33;;;;;;;;;;5095138;28;20039;-74
2022/02/11 11:05:48;;;;;;;3.20;1.38;;;;;;;;;;5092406;28;20071;-75
2022/02/11 11:08:16;;;;;;;4.78;1.60;;;;;;;;;;5094069;28;20040;-75
2022/02/11 11:10:45;;;;;;;6.88;1.40;;;;;;;;;;5094217;28;20040;-75
2022/02/11 11:13:15;;;;;;;3.33;1.63;;;;;;;;;;5095093;28;20076;-75
2022/02/11 11:15:43;;;;;;;4.53;1.33;;;;;;;;;;5095160;28;20098;-75
2022/02/11 11:18:10;;;;;;;5.05;1.52;;;;;;;;;;5094814;28;20093;-75
2022/02/11 11:20:39;;;;;;;2.80;1.50;;;;;;;;;;5094442;28;20094;-75
2022/02/11 11:23:10;;;;;;;5.72;1.70;;;;;;;;;;5094890;28;20086;-75
2022/02/11 11:26:02;;;;;;;2.95;1.38;;;;;;;;;;5094782;28;20094;-76
2022/02/11 11:28:42;;;;;;;4.43;1.80;;;;;;;;;;5094790;28;20044;-76
2022/02/11 11:31:10;;;;;;;2.65;1.30;;;;;;;;;;5094561;28;20040;-76
2022/02/11 11:33:37;;;;;;;7.78;1.80;;;;;;;;;;5094814;28;20101;-76
2022/02/11 11:36:10;;;;;;;3.53;1.20;;;;;;;;;;5094260;28;20075;-76
2022/02/11 11:38:39;;;;;;;3.90;1.60;;;;;;;;;;5094719;28;20080;-75
2022/02/11 11:41:09;;;;;;;4.75;2.28;;;;;;;;;;5093820;28;20087;-75
2022/02/11 11:43:37;;;;;;;4.32;1.63;;;;;;;;;;5094440;28;20099;-75
2022/02/11 11:46:05;;;;;;;4.88;2.40;;;;;;;;;;5094449;28;20040;-75
2022/02/11 11:48:41;;;;;;;5.35;2.63;;;;;;;;;;5094580;28;20071;-75
2022/02/11 11:51:09;;;;;;;;;;;;;;;;;;5094406;28;20094;-75
2022/02/11 11:53:35;;;;;;;4.28;1.48;;;;;;;;;;5093719;28;19916;-75
2022/02/11 11:56:31;;;;;;;3.95;1.52;;;;;;;;;;5098683;28;20079;-75
2022/02/11 11:58:58;;;;;;;2.13;1.27;;;;;;;;;;5098440;28;20067;-75
2022/02/11 12:01:24;;;;;;;3.33;1.10;;;;;;;;;;5097600;28;20526;-75
2022/02/11 12:04:22;;;;;;;2.88;1.23;;;;;;;;;;5098564;28;20071;-75
2022/02/11 12:06:52;;;;;;;3.42;1.38;;;;;;;;;;5097311;28;20048;-75
2022/02/11 12:09:18;;;;;;;5.15;1.50;;;;;;;;;;5097303;28;20450;-75
2022/02/11 12:11:45;;;;;;;3.92;1.65;;;;;;;;;;5098256;28;20076;-76
2022/02/11 12:14:11;;;;;;;2.20;1.27;;;;;;;;;;5097847;28;20044;-75
2022/02/11 12:16:38;;;;;;;3.90;1.33;;;;;;;;;;5096906;28;20076;-75
2022/02/11 12:19:05;;;;;;;2.72;1.38;;;;;;;;;;5097932;28;20071;-76
2022/02/11 12:21:31;;;;;;;5.30;2.40;;;;;;;;;;5098165;28;20072;-75
2022/02/11 12:29:28;;;;;;;10.80;4.60;;;;;;;;;;5097377;28;20050;-74
2022/02/11 12:31:56;;;;;;;5.60;1.75;;;;;;;;;;5098027;28;20071;-74
2022/02/11 12:34:22;;;;;;;11.10;3.17;;;;;;;;;;5097914;28;20086;-74
2022/02/11 12:36:49;;;;;;;10.25;3.55;;;;;;;;;;5097724;28;20071;-74
2022/02/11 12:39:23;;;;;;;6.82;2.70;;;;;;;;;;5096865;28;20113;-75
2022/02/11 12:41:51;;;;;;;5.32;2.22;;;;;;;;;;5097710;28;20054;-74
2022/02/11 12:44:25;;;;;;;5.63;1.70;;;;;;;;;;5096854;28;20066;-75
2022/02/11 12:46:52;;;;;;;7.18;2.13;;;;;;;;;;5097658;28;20075;-75
2022/02/11 12:49:18;;;;;;;10.02;4.22;;;;;;;;;;5097659;28;20099;-74
2022/02/11 12:51:49;;;;;;;4.15;1.98;;;;;;;;;;5097644;28;20075;-74
2022/02/11 12:54:15;;;;;;;3.83;1.33;;;;;;;;;;5096634;28;20136;-75
2022/02/11 12:56:44;;;;;;;2.85;1.20;;;;;;;;;;5097154;28;20079;-75
2022/02/11 12:59:11;;;;;;;2.00;0.95;;;;;;;;;;5097396;28;20044;-74
2022/02/11 13:01:38;;;;;;;3.85;1.15;;;;;;;;;;5097445;28;20098;-75
2022/02/11 13:04:04;;;;;;;1.73;0.90;;;;;;;;;;5096197;28;20489;-75
2022/02/11 13:06:32;;;;;;;2.15;0.90;;;;;;;;;;5096234;28;20040;-75
2022/02/11 13:09:02;;;;;;;4.25;1.05;;;;;;;;;;5097091;28;20372;-76
2022/02/11 13:11:29;;;;;;;6.47;1.08;;;;;;;;;;5097448;28;20075;-76
2022/02/11 13:14:09;;;;;;;4.95;1.27;;;;;;;;;;5098071;28;20082;-76
2022/02/11 13:16:37;;;;;;;3.35;1.23;;;;;;;;;;5099018;28;20119;-75
2022/02/11 13:19:10;;;;;;;4.18;1.45;;;;;;;;;;5098195;28;20157;-76
2022/02/11 13:21:36;;;;;;;1.95;1.00;;;;;;;;;;5098481;28;20044;-76
2022/02/11 13:24:03;;;;;;;7.30;1.55;;;;;;;;;;5098561;28;20040;-75
2022/02/11 13:26:30;;;;;;;2.28;1.00;;;;;;;;;;5098337;28;20082;-76
2022/02/11 13:28:57;;;;;;;1.90;0.93;;;;;;;;;;5097560;28;20121;-76
2022/02/11 13:31:25;;;;;;;3.45;0.90;;;;;;;;;;5096681;28;20040;-76
2022/02/11 13:34:03;;;;;;;7.22;1.25;;;;;;;;;;5097043;28;20044;-75
2022/02/11 13:36:30;;;;;;;5.07;1.17;;;;;;;;;;5096575;28;20040;-76
2022/02/11 13:39:01;;;;;;;1.48;0.80;;;;;;;;;;5096790;28;20071;-75
2022/02/11 13:41:29;;;;;;;1.75;1.00;;;;;;;;;;5096065;28;20487;-75
2022/02/11 13:43:57;;;;;;;4.40;1.73;;;;;;;;;;5096199;28;20044;-75
2022/02/11 13:46:27;;;;;;;4.47;1.20;;;;;;;;;;5095923;28;20499;-76
2022/02/11 13:48:55;;;;;;;3.47;1.02;;;;;;;;;;5096686;28;20047;-76
2022/02/11 13:51:22;;;;;;;4.82;1.10;;;;;;;;;;5096642;28;20040;-76
2022/02/11 13:53:52;;;;;;;2.05;0.93;;;;;;;;;;5095596;28;20392;-75
2022/02/11 13:56:23;;;;;;;2.83;1.02;;;;;;;;;;5095236;28;20482;-76
2022/02/11 13:59:05;;;;;;;4.10;1.90;;;;;;;;;;5096329;28;20043;-76
2022/02/11 14:01:34;;;;;;;4.15;1.98;;;;;;;;;;5096145;28;20090;-75
2022/02/11 14:04:02;;;;;;;3.30;1.30;;;;;;;;;;5095298;28;20036;-75
2022/02/11 14:06:35;;;;;;;3.05;1.45;;;;;;;;;;5095995;28;20423;-75
2022/02/11 14:09:03;;;;;;;4.88;1.55;;;;;;;;;;5095044;28;20054;-75
2022/02/11 14:11:35;;;;;;;3.97;1.40;;;;;;;;;;5095247;28;20051;-75
2022/02/11 14:14:17;;;;;;;5.85;1.33;;;;;;;;;;5094947;28;20043;-75
2022/02/11 14:16:46;;;;;;;3.25;1.42;;;;;;;;;;5095685;28;20046;-75
2022/02/11 14:19:16;;;;;;;5.35;1.70;;;;;;;;;;5094427;28;20089;-75
2022/02/11 14:21:42;;;;;;;2.45;1.10;;;;;;;;;;5095896;28;20092;-75
2022/02/11 14:24:09;;;;;;;2.00;0.82;;;;;;;;;;5094907;28;20047;-75
2022/02/11 14:26:36;;;;;;;2.05;1.00;;;;;;;;;;5095773;28;20127;-75
2022/02/11 14:29:03;;;;;;;3.72;1.30;;;;;;;;;;5095515;28;20040;-74
2022/02/11 14:31:29;;;;;;;3.60;1.33;;;;;;;;;;5094573;28;20480;-75
2022/02/11 14:33:57;;;;;;;3.33;1.20;;;;;;;;;;5095630;28;20075;-75
2022/02/11 14:36:24;;;;;;;2.38;1.20;;;;;;;;;;5095640;28;20078;-75
2022/02/11 14:38:51;;;;;;;2.30;1.20;;;;;;;;;;5094774;28;20079;-75
2022/02/11 14:44:02;;;;;;;2.65;1.20;;;;;;;;;;5094732;28;20055;-75
2022/02/11 14:46:28;;;;;;;1.98;1.00;;;;;;;;;;5094263;28;20036;-75
2022/02/11 14:48:56;;;;;;;2.15;1.17;;;;;;;;;;5095432;28;20040;-75
2022/02/11 14:51:23;;;;;;;4.38;1.27;;;;;;;;;;5094501;28;20082;-75
2022/02/11 14:53:49;;;;;;;1.80;1.20;;;;;;;;;;5095078;28;20094;-75
2022/02/11 14:56:16;;;;;;;3.35;1.30;;;;;;;;;;5094137;28;20488;-75
2022/02/11 14:58:43;;;;;;;2.05;1.23;;;;;;;;;;5094965;28;20125;-75
2022/02/11 15:01:10;;;;;;;3.42;1.30;;;;;;;;;;5094921;28;20052;-75
2022/02/11 15:03:36;;;;;;;3.95;1.30;;;;;;;;;;5095016;28;20039;-75
2022/02/11 15:06:04;;;;;;;3.08;1.95;;;;;;;;;;5095077;28;20079;-75
2022/02/11 15:08:31;;;;;;;3.55;1.45;;;;;;;;;;5095034;28;20079;-75
2022/02/11 15:10:58;;;;;;;3.85;1.70;;;;;;;;;;5094700;28;20123;-75
2022/02/11 15:13:24;;;;;;;3.70;1.30;;;;;;;;;;5093780;28;20448;-75
2022/02/11 15:15:51;;;;;;;3.70;1.40;;;;;;;;;;5094706;28;20078;-75
2022/02/11 15:18:17;;;;;;;7.40;2.03;;;;;;;;;;5094486;28;20040;-75
2022/02/11 15:20:45;;;;;;;6.45;1.45;;;;;;;;;;5094899;28;20101;-75
2022/02/11 15:23:14;;;;;;;3.75;1.23;;;;;;;;;;5093837;28;20051;-75
2022/02/11 15:25:40;;;;;;;3.67;1.60;;;;;;;;;;5094740;28;20440;-75
2022/02/11 15:28:07;;;;;;;4.20;1.67;;;;;;;;;;5094708;28;20094;-75
2022/02/11 15:30:33;;;;;;;3.15;1.45;;;;;;;;;;5093243;28;20395;-74
2022/02/11 15:33:00;;;;;;;4.05;1.52;;;;;;;;;;5093766;28;20082;-75
2022/02/11 15:35:29;;;;;;;2.55;1.58;;;;;;;;;;5093590;28;20087;-75
2022/02/11 15:37:56;;;;;;;3.28;1.98;;;;;;;;;;5094559;28;20094;-75
2022/02/11 15:40:37;;;;;;;5.78;2.03;;;;;;;;;;5093978;28;20055;-75
2022/02/11 15:43:04;;;;;;;8.30;2.80;;;;;;;;;;5093400;28;20483;-74
2022/02/11 15:45:31;;;;;;;10.13;3.20;;;;;;;;;;5093443;28;20391;-75
2022/02/11 15:47:58;;;;;;;4.43;2.15;;;;;;;;;;5093515;28;20072;-76
2022/02/11 15:50:24;;;;;;;4.03;1.95;;;;;;;;;;5094152;28;20083;-75
2022/02/11 15:52:52;;;;;;;5.55;2.00;;;;;;;;;;5094499;28;20075;-75
2022/02/11 15:55:19;;;;;;;5.28;2.08;;;;;;;;;;5094130;28;20493;-75
2022/02/11 15:57:47;;;;;;;6.55;2.70;;;;;;;;;;5096031;28;20076;-74
2022/02/11 16:00:15;;;;;;;3.65;1.88;;;;;;;;;;5094090;28;20071;-75
2022/02/11 16:02:42;;;;;;;5.50;1.48;;;;;;;;;;5093339;28;20535;-75
2022/02/11 16:05:09;;;;;;;5.55;2.33;;;;;;;;;;5093529;28;20452;-75
2022/02/11 16:07:37;;;;;;;5.80;2.00;;;;;;;;;;5094360;28;20044;-75
2022/02/11 16:10:04;;;;;;;5.32;1.77;;;;;;;;;;5094093;28;20427;-74
2022/02/11 16:12:31;;;;;;;3.30;1.75;;;;;;;;;;5093403;28;20043;-75
2022/02/11 16:15:00;;;;;;;6.35;1.85;;;;;;;;;;5093858;28;20047;-75
2022/02/11 16:17:27;;;;;;;8.13;2.50;;;;;;;;;;5094103;28;20047;-75
2022/02/11 16:19:54;;;;;;;3.45;2.00;;;;;;;;;;5092902;28;20040;-75
2022/02/11 16:22:24;;;;;;;5.28;2.40;;;;;;;;;;5094126;28;20082;-75
2022/02/11 16:24:51;;;;;;;5.28;2.30;;;;;;;;;;5093758;28;20131;-75
2022/02/11 16:27:18;;;;;;;11.85;2.60;;;;;;;;;;5094131;28;20075;-75
2022/02/11 16:29:46;;;;;;;7.13;4.70;;;;;;;;;;5093233;28;20040;-75
2022/02/11 16:32:14;;;;;;;7.05;2.80;;;;;;;;;;5094078;28;20048;-75
2022/02/11 16:34:41;;;;;;;3.75;2.72;;;;;;;;;;5094017;28;20082;-75
2022/02/11 16:37:09;;;;;;;10.25;2.95;;;;;;;;;;5093971;28;20040;-75
2022/02/11 16:39:41;;;;;;;4.00;2.60;;;;;;;;;;5092729;28;20472;-75
2022/02/11 16:42:09;;;;;;;10.75;3.00;;;;;;;;;;5095593;28;20464;-74
2022/02/11 16:44:37;;;;;;;5.28;2.67;;;;;;;;;;5096926;28;20123;-75
2022/02/11 16:47:04;;;;;;;13.18;5.07;;;;;;;;;;5097275;28;20044;-75
2022/02/11 16:49:32;;;;;;;20.98;5.65;;;;;;;;;;5096679;28;20083;-75
2022/02/11 16:52:00;;;;;;;15.65;6.80;;;;;;;;;;5097694;28;20446;-74
2022/02/11 16:54:33;;;;;;;15.85;6.65;;;;;;;;;;5096829;28;20051;-74
2022/02/11 16:57:00;;;;;;;15.40;6.95;;;;;;;;;;5097634;28;20051;-75
2022/02/11 16:59:26;;;;;;;13.38;5.68;;;;;;;;;;5096425;28;20075;-74
2022/02/11 17:01:53;;;;;;;6.32;3.65;;;;;;;;;;5097520;28;20047;-75
2022/02/11 17:04:19;;;;;;;7.63;3.40;;;;;;;;;;5097209;28;20076;-74
2022/02/11 17:06:47;;;;;;;8.00;3.83;;;;;;;;;;5096301;28;20076;-75
2022/02/11 17:09:14;;;;;;;9.43;3.72;;;;;;;;;;5097198;28;20040;-75
2022/02/11 17:11:40;;;;;;;4.85;2.50;;;;;;;;;;5096504;28;20086;-75
2022/02/11 17:14:07;;;;;;;4.85;2.17;;;;;;;;;;5097079;28;20125;-75
2022/02/11 17:16:33;;;;;;;4.50;1.60;;;;;;;;;;5097215;28;20080;-76
2022/02/11 17:19:00;;;;;;;7.28;2.75;;;;;;;;;;5096246;28;20550;-75
2022/02/11 17:21:26;;;;;;;3.22;1.83;;;;;;;;;;5097226;28;20075;-75
2022/02/11 17:23:54;;;;;;;4.82;2.30;;;;;;;;;;5096845;28;20102;-75
2022/02/11 17:26:21;;;;;;;3.83;1.92;;;;;;;;;;5096778;28;20419;-75
2022/02/11 17:28:47;;;;;;;3.15;1.50;;;;;;;;;;5097086;28;20180;-74
2022/02/11 17:31:14;;;;;;;3.05;1.80;;;;;;;;;;5096725;28;20040;-74
2022/02/11 17:33:40;;;;;;;5.05;2.30;;;;;;;;;;5096665;28;20047;-74
2022/02/11 17:36:07;;;;;;;5.57;2.33;;;;;;;;;;5096894;28;20072;-75
2022/02/11 17:38:33;;;;;;;4.05;2.38;;;;;;;;;;5096823;28;20075;-74
2022/02/11 17:41:01;;;;;;;4.35;2.13;;;;;;;;;;5096065;28;20076;-74
2022/02/11 17:43:28;;;;;;;4.65;1.92;;;;;;;;;;5096701;28;20434;-74
2022/02/11 17:45:55;;;;;;;3.33;1.85;;;;;;;;;;5096318;28;20040;-75
2022/02/11 17:48:21;;;;;;;7.15;2.63;;;;;;;;;;5096564;28;20040;-75
2022/02/11 17:50:48;;;;;;;3.92;1.75;;;;;;;;;;5096005;28;20126;-74
2022/02/11 17:53:14;;;;;;;3.45;1.83;;;;;;;;;;5095170;28;20040;-75
2022/02/11 17:55:41;;;;;;;2.55;1.30;;;;;;;;;;5095413;28;20083;-75
2022/02/11 17:58:09;;;;;;;4.38;2.03;;;;;;;;;;5095676;28;20087;-74
2022/02/11 18:00:35;;;;;;;6.50;3.20;;;;;;;;;;5096402;28;20044;-74
2022/02/11 18:03:02;;;;;;;3.60;2.72;;;;;;;;;;5096364;28;20048;-74